sensor_id;sensor_type;location;lat;lon;timestamp;P1;durP1;ratioP1;P2;durP2;ratioP2
6205;SDS011;3136;48.788;9.772;2023-03-01T00:01:23;25.03;;;14.53;;
6205;SDS011;3136;48.788;9.772;2023-03-01T00:03:51;23.50;;;13.47;;
6205;SDS011;3136;48.788;9.772;2023-03-01T00:06:17;22.00;;;13.30;;
6205;SDS011;3136;48.788;9.772;2023-03-01T00:08:43;22.97;;;13.00;;
6205;SDS011;3136;48.788;9.772;2023-03-01T00:11:13;23.90;;;13.57;;
6205;SDS011;3136;48.788;9.772;2023-03-01T00:13:41;21.57;;;13.17;;
6205;SDS011;3136;48.788;9.772;2023-03-01T00:16:09;25.63;;;14.20;;
6205;SDS011;3136;48.788;9.772;2023-03-01T00:18:37;26.30;;;14.17;;
6205;SDS011;3136;48.788;9.772;2023-03-01T00:21:03;25.57;;;13.90;;
6205;SDS011;3136;48.788;9.772;2023-03-01T00:23:30;22.27;;;12.97;;
6205;SDS011;3136;48.788;9.772;2023-03-01T00:25:56;21.27;;;12.80;;
6205;SDS011;3136;48.788;9.772;2023-03-01T00:28:22;25.80;;;13.73;;
6205;SDS011;3136;48.788;9.772;2023-03-01T00:30:48;23.60;;;12.93;;
6205;SDS011;3136;48.788;9.772;2023-03-01T00:33:14;23.27;;;13.07;;
6205;SDS011;3136;48.788;9.772;2023-03-01T00:35:39;19.33;;;11.90;;
6205;SDS011;3136;48.788;9.772;2023-03-01T00:38:05;20.80;;;12.47;;
6205;SDS011;3136;48.788;9.772;2023-03-01T00:40:32;23.00;;;12.80;;
6205;SDS011;3136;48.788;9.772;2023-03-01T00:42:59;23.20;;;12.77;;
6205;SDS011;3136;48.788;9.772;2023-03-01T00:45:24;20.40;;;12.90;;
6205;SDS011;3136;48.788;9.772;2023-03-01T00:47:50;24.53;;;13.63;;
6205;SDS011;3136;48.788;9.772;2023-03-01T00:50:16;21.43;;;12.23;;
6205;SDS011;3136;48.788;9.772;2023-03-01T00:52:43;20.97;;;11.93;;
6205;SDS011;3136;48.788;9.772;2023-03-01T00:55:08;22.50;;;12.63;;
6205;SDS011;3136;48.788;9.772;2023-03-01T00:57:35;23.47;;;13.10;;
6205;SDS011;3136;48.788;9.772;2023-03-01T01:00:00;23.70;;;12.93;;
6205;SDS011;3136;48.788;9.772;2023-03-01T01:02:26;24.70;;;12.50;;
6205;SDS011;3136;48.788;9.772;2023-03-01T01:04:52;25.93;;;12.83;;
6205;SDS011;3136;48.788;9.772;2023-03-01T01:07:17;24.27;;;13.03;;
6205;SDS011;3136;48.788;9.772;2023-03-01T01:09:45;22.03;;;12.77;;
6205;SDS011;3136;48.788;9.772;2023-03-01T01:12:11;25.07;;;12.73;;
6205;SDS011;3136;48.788;9.772;2023-03-01T01:14:37;23.73;;;13.03;;
6205;SDS011;3136;48.788;9.772;2023-03-01T01:17:03;22.27;;;13.13;;
6205;SDS011;3136;48.788;9.772;2023-03-01T01:19:29;22.90;;;13.40;;
6205;SDS011;3136;48.788;9.772;2023-03-01T01:21:54;24.07;;;13.37;;
6205;SDS011;3136;48.788;9.772;2023-03-01T01:24:20;23.07;;;13.63;;
6205;SDS011;3136;48.788;9.772;2023-03-01T01:26:46;23.80;;;13.53;;
6205;SDS011;3136;48.788;9.772;2023-03-01T01:29:12;25.03;;;13.40;;
6205;SDS011;3136;48.788;9.772;2023-03-01T01:31:38;21.60;;;13.07;;
6205;SDS011;3136;48.788;9.772;2023-03-01T01:34:06;21.87;;;12.60;;
6205;SDS011;3136;48.788;9.772;2023-03-01T01:36:33;22.27;;;12.93;;
6205;SDS011;3136;48.788;9.772;2023-03-01T01:38:59;24.07;;;13.43;;
6205;SDS011;3136;48.788;9.772;2023-03-01T01:41:26;21.30;;;13.03;;
6205;SDS011;3136;48.788;9.772;2023-03-01T01:46:37;23.07;;;14.07;;
6205;SDS011;3136;48.788;9.772;2023-03-01T01:49:07;23.00;;;13.17;;
6205;SDS011;3136;48.788;9.772;2023-03-01T01:51:48;26.87;;;14.33;;
6205;SDS011;3136;48.788;9.772;2023-03-01T01:54:19;21.43;;;13.03;;
6205;SDS011;3136;48.788;9.772;2023-03-01T01:56:55;23.47;;;13.27;;
6205;SDS011;3136;48.788;9.772;2023-03-01T01:59:24;22.03;;;12.67;;
6205;SDS011;3136;48.788;9.772;2023-03-01T02:01:52;22.93;;;13.43;;
6205;SDS011;3136;48.788;9.772;2023-03-01T02:04:18;20.13;;;12.73;;
6205;SDS011;3136;48.788;9.772;2023-03-01T02:06:48;23.87;;;14.43;;
6205;SDS011;3136;48.788;9.772;2023-03-01T02:09:18;21.20;;;13.30;;
6205;SDS011;3136;48.788;9.772;2023-03-01T02:11:47;22.83;;;13.40;;
6205;SDS011;3136;48.788;9.772;2023-03-01T02:14:14;24.17;;;13.77;;
6205;SDS011;3136;48.788;9.772;2023-03-01T02:16:40;22.13;;;13.70;;
6205;SDS011;3136;48.788;9.772;2023-03-01T02:19:07;23.30;;;13.63;;
6205;SDS011;3136;48.788;9.772;2023-03-01T02:25:07;24.10;;;13.70;;
6205;SDS011;3136;48.788;9.772;2023-03-01T02:27:38;22.13;;;12.53;;
6205;SDS011;3136;48.788;9.772;2023-03-01T02:30:30;21.63;;;12.80;;
6205;SDS011;3136;48.788;9.772;2023-03-01T02:32:57;20.67;;;12.67;;
6205;SDS011;3136;48.788;9.772;2023-03-01T02:35:27;23.73;;;13.07;;
6205;SDS011;3136;48.788;9.772;2023-03-01T02:37:56;21.93;;;13.80;;
6205;SDS011;3136;48.788;9.772;2023-03-01T02:40:26;21.07;;;12.67;;
6205;SDS011;3136;48.788;9.772;2023-03-01T02:42:56;22.50;;;12.93;;
6205;SDS011;3136;48.788;9.772;2023-03-01T02:45:23;20.10;;;12.60;;
6205;SDS011;3136;48.788;9.772;2023-03-01T02:47:49;20.50;;;12.73;;
6205;SDS011;3136;48.788;9.772;2023-03-01T02:50:31;23.60;;;14.97;;
6205;SDS011;3136;48.788;9.772;2023-03-01T02:53:47;24.77;;;14.07;;
6205;SDS011;3136;48.788;9.772;2023-03-01T02:56:21;28.30;;;13.83;;
6205;SDS011;3136;48.788;9.772;2023-03-01T02:58:47;24.27;;;14.00;;
6205;SDS011;3136;48.788;9.772;2023-03-01T03:01:16;23.70;;;13.87;;
6205;SDS011;3136;48.788;9.772;2023-03-01T03:03:45;25.30;;;14.13;;
6205;SDS011;3136;48.788;9.772;2023-03-01T03:06:11;24.20;;;14.33;;
6205;SDS011;3136;48.788;9.772;2023-03-01T03:08:37;21.73;;;13.07;;
6205;SDS011;3136;48.788;9.772;2023-03-01T03:11:02;22.03;;;13.23;;
6205;SDS011;3136;48.788;9.772;2023-03-01T03:13:28;22.67;;;13.60;;
6205;SDS011;3136;48.788;9.772;2023-03-01T03:15:57;24.13;;;13.93;;
6205;SDS011;3136;48.788;9.772;2023-03-01T03:18:23;22.77;;;13.53;;
6205;SDS011;3136;48.788;9.772;2023-03-01T03:20:50;21.87;;;14.53;;
6205;SDS011;3136;48.788;9.772;2023-03-01T03:23:18;22.73;;;13.73;;
6205;SDS011;3136;48.788;9.772;2023-03-01T03:25:47;20.27;;;13.57;;
6205;SDS011;3136;48.788;9.772;2023-03-01T03:28:14;20.63;;;13.00;;
6205;SDS011;3136;48.788;9.772;2023-03-01T03:30:41;22.67;;;13.83;;
6205;SDS011;3136;48.788;9.772;2023-03-01T03:33:09;21.70;;;13.33;;
6205;SDS011;3136;48.788;9.772;2023-03-01T03:35:46;21.90;;;13.33;;
6205;SDS011;3136;48.788;9.772;2023-03-01T03:38:13;22.43;;;13.70;;
6205;SDS011;3136;48.788;9.772;2023-03-01T03:40:42;21.50;;;13.37;;
6205;SDS011;3136;48.788;9.772;2023-03-01T03:43:12;23.73;;;13.33;;
6205;SDS011;3136;48.788;9.772;2023-03-01T03:45:39;22.77;;;13.80;;
6205;SDS011;3136;48.788;9.772;2023-03-01T03:48:06;22.83;;;14.10;;
6205;SDS011;3136;48.788;9.772;2023-03-01T03:50:34;22.30;;;13.40;;
6205;SDS011;3136;48.788;9.772;2023-03-01T03:53:00;25.07;;;14.53;;
6205;SDS011;3136;48.788;9.772;2023-03-01T03:55:27;20.73;;;13.37;;
6205;SDS011;3136;48.788;9.772;2023-03-01T03:57:56;22.53;;;13.90;;
6205;SDS011;3136;48.788;9.772;2023-03-01T04:00:23;23.27;;;13.43;;
6205;SDS011;3136;48.788;9.772;2023-03-01T04:02:49;24.87;;;15.00;;
6205;SDS011;3136;48.788;9.772;2023-03-01T04:05:16;22.80;;;13.77;;
6205;SDS011;3136;48.788;9.772;2023-03-01T04:07:43;26.17;;;14.73;;
6205;SDS011;3136;48.788;9.772;2023-03-01T04:10:11;21.97;;;14.03;;
6205;SDS011;3136;48.788;9.772;2023-03-01T04:12:39;24.10;;;13.83;;
6205;SDS011;3136;48.788;9.772;2023-03-01T04:15:06;23.23;;;13.93;;
6205;SDS011;3136;48.788;9.772;2023-03-01T04:17:41;25.37;;;13.23;;
6205;SDS011;3136;48.788;9.772;2023-03-01T04:20:09;23.70;;;14.43;;
6205;SDS011;3136;48.788;9.772;2023-03-01T04:22:36;22.80;;;13.43;;
6205;SDS011;3136;48.788;9.772;2023-03-01T04:25:02;25.47;;;14.47;;
6205;SDS011;3136;48.788;9.772;2023-03-01T04:27:29;22.53;;;13.67;;
6205;SDS011;3136;48.788;9.772;2023-03-01T04:29:55;22.97;;;14.00;;
6205;SDS011;3136;48.788;9.772;2023-03-01T04:32:20;23.23;;;13.70;;
6205;SDS011;3136;48.788;9.772;2023-03-01T04:34:46;23.97;;;14.57;;
6205;SDS011;3136;48.788;9.772;2023-03-01T04:37:11;25.20;;;14.03;;
6205;SDS011;3136;48.788;9.772;2023-03-01T04:39:37;22.97;;;14.07;;
6205;SDS011;3136;48.788;9.772;2023-03-01T04:42:10;24.93;;;14.57;;
6205;SDS011;3136;48.788;9.772;2023-03-01T04:44:42;24.53;;;14.73;;
6205;SDS011;3136;48.788;9.772;2023-03-01T04:47:08;23.73;;;14.30;;
6205;SDS011;3136;48.788;9.772;2023-03-01T04:49:34;27.37;;;14.67;;
6205;SDS011;3136;48.788;9.772;2023-03-01T04:51:59;23.97;;;13.63;;
6205;SDS011;3136;48.788;9.772;2023-03-01T04:54:33;27.33;;;14.97;;
6205;SDS011;3136;48.788;9.772;2023-03-01T04:57:00;23.77;;;14.47;;
6205;SDS011;3136;48.788;9.772;2023-03-01T04:59:26;23.83;;;14.67;;
6205;SDS011;3136;48.788;9.772;2023-03-01T05:01:53;22.73;;;13.33;;
6205;SDS011;3136;48.788;9.772;2023-03-01T05:04:22;22.80;;;13.67;;
6205;SDS011;3136;48.788;9.772;2023-03-01T05:06:48;20.50;;;13.30;;
6205;SDS011;3136;48.788;9.772;2023-03-01T05:09:14;22.40;;;14.07;;
6205;SDS011;3136;48.788;9.772;2023-03-01T05:11:40;23.33;;;13.73;;
6205;SDS011;3136;48.788;9.772;2023-03-01T05:14:06;28.60;;;15.37;;
6205;SDS011;3136;48.788;9.772;2023-03-01T05:16:33;23.57;;;14.67;;
6205;SDS011;3136;48.788;9.772;2023-03-01T05:18:59;24.30;;;14.37;;
6205;SDS011;3136;48.788;9.772;2023-03-01T05:21:25;22.50;;;13.83;;
6205;SDS011;3136;48.788;9.772;2023-03-01T05:23:51;24.03;;;14.47;;
6205;SDS011;3136;48.788;9.772;2023-03-01T05:26:18;27.20;;;14.50;;
6205;SDS011;3136;48.788;9.772;2023-03-01T05:28:46;24.83;;;14.27;;
6205;SDS011;3136;48.788;9.772;2023-03-01T05:31:12;24.00;;;14.50;;
6205;SDS011;3136;48.788;9.772;2023-03-01T05:33:38;24.20;;;14.27;;
6205;SDS011;3136;48.788;9.772;2023-03-01T05:36:05;22.07;;;14.10;;
6205;SDS011;3136;48.788;9.772;2023-03-01T05:38:32;25.50;;;14.00;;
6205;SDS011;3136;48.788;9.772;2023-03-01T05:40:58;27.03;;;15.53;;
6205;SDS011;3136;48.788;9.772;2023-03-01T05:43:24;25.73;;;14.53;;
6205;SDS011;3136;48.788;9.772;2023-03-01T05:45:50;27.10;;;14.83;;
6205;SDS011;3136;48.788;9.772;2023-03-01T05:48:16;26.30;;;15.37;;
6205;SDS011;3136;48.788;9.772;2023-03-01T05:50:44;26.17;;;14.50;;
6205;SDS011;3136;48.788;9.772;2023-03-01T05:53:13;29.73;;;15.70;;
6205;SDS011;3136;48.788;9.772;2023-03-01T05:55:40;26.67;;;14.63;;
6205;SDS011;3136;48.788;9.772;2023-03-01T05:58:09;26.13;;;14.87;;
6205;SDS011;3136;48.788;9.772;2023-03-01T06:00:38;25.10;;;14.87;;
6205;SDS011;3136;48.788;9.772;2023-03-01T06:03:04;24.83;;;14.93;;
6205;SDS011;3136;48.788;9.772;2023-03-01T06:05:30;23.47;;;15.23;;
6205;SDS011;3136;48.788;9.772;2023-03-01T06:07:58;23.90;;;14.60;;
6205;SDS011;3136;48.788;9.772;2023-03-01T06:10:24;25.33;;;15.20;;
6205;SDS011;3136;48.788;9.772;2023-03-01T06:12:50;26.50;;;15.43;;
6205;SDS011;3136;48.788;9.772;2023-03-01T06:15:16;27.47;;;15.67;;
6205;SDS011;3136;48.788;9.772;2023-03-01T06:17:43;26.40;;;14.73;;
6205;SDS011;3136;48.788;9.772;2023-03-01T06:20:13;25.17;;;14.23;;
6205;SDS011;3136;48.788;9.772;2023-03-01T06:22:41;23.13;;;14.37;;
6205;SDS011;3136;48.788;9.772;2023-03-01T06:25:08;25.63;;;15.43;;
6205;SDS011;3136;48.788;9.772;2023-03-01T06:27:35;27.97;;;14.67;;
6205;SDS011;3136;48.788;9.772;2023-03-01T06:30:01;28.33;;;14.97;;
6205;SDS011;3136;48.788;9.772;2023-03-01T06:32:27;28.43;;;14.80;;
6205;SDS011;3136;48.788;9.772;2023-03-01T06:34:53;26.97;;;15.13;;
6205;SDS011;3136;48.788;9.772;2023-03-01T06:37:18;27.40;;;15.97;;
6205;SDS011;3136;48.788;9.772;2023-03-01T06:39:44;28.90;;;15.83;;
6205;SDS011;3136;48.788;9.772;2023-03-01T06:42:09;27.10;;;16.10;;
6205;SDS011;3136;48.788;9.772;2023-03-01T06:44:36;27.47;;;15.20;;
6205;SDS011;3136;48.788;9.772;2023-03-01T06:47:02;28.20;;;15.33;;
6205;SDS011;3136;48.788;9.772;2023-03-01T06:49:28;28.77;;;16.80;;
6205;SDS011;3136;48.788;9.772;2023-03-01T06:51:55;23.13;;;14.27;;
6205;SDS011;3136;48.788;9.772;2023-03-01T06:54:20;25.47;;;15.20;;
6205;SDS011;3136;48.788;9.772;2023-03-01T06:56:47;25.90;;;15.23;;
6205;SDS011;3136;48.788;9.772;2023-03-01T06:59:14;30.87;;;16.50;;
6205;SDS011;3136;48.788;9.772;2023-03-01T07:01:40;25.53;;;15.07;;
6205;SDS011;3136;48.788;9.772;2023-03-01T07:04:05;26.27;;;15.87;;
6205;SDS011;3136;48.788;9.772;2023-03-01T07:06:31;26.30;;;15.27;;
6205;SDS011;3136;48.788;9.772;2023-03-01T07:08:56;27.87;;;15.40;;
6205;SDS011;3136;48.788;9.772;2023-03-01T07:11:22;24.30;;;15.17;;
6205;SDS011;3136;48.788;9.772;2023-03-01T07:13:48;29.07;;;15.37;;
6205;SDS011;3136;48.788;9.772;2023-03-01T07:16:13;26.80;;;15.30;;
6205;SDS011;3136;48.788;9.772;2023-03-01T07:18:39;24.93;;;14.83;;
6205;SDS011;3136;48.788;9.772;2023-03-01T07:21:06;27.60;;;15.10;;
6205;SDS011;3136;48.788;9.772;2023-03-01T07:23:33;27.03;;;14.07;;
6205;SDS011;3136;48.788;9.772;2023-03-01T07:25:58;34.47;;;15.07;;
6205;SDS011;3136;48.788;9.772;2023-03-01T07:28:25;23.73;;;14.63;;
6205;SDS011;3136;48.788;9.772;2023-03-01T07:30:54;25.70;;;14.47;;
6205;SDS011;3136;48.788;9.772;2023-03-01T07:33:20;26.60;;;14.47;;
6205;SDS011;3136;48.788;9.772;2023-03-01T07:35:45;28.47;;;15.57;;
6205;SDS011;3136;48.788;9.772;2023-03-01T07:38:11;25.77;;;15.00;;
6205;SDS011;3136;48.788;9.772;2023-03-01T07:40:36;28.50;;;15.77;;
6205;SDS011;3136;48.788;9.772;2023-03-01T07:43:02;27.13;;;14.97;;
6205;SDS011;3136;48.788;9.772;2023-03-01T07:45:28;23.83;;;14.93;;
6205;SDS011;3136;48.788;9.772;2023-03-01T07:47:54;23.57;;;14.50;;
6205;SDS011;3136;48.788;9.772;2023-03-01T07:50:20;26.43;;;14.33;;
6205;SDS011;3136;48.788;9.772;2023-03-01T07:52:48;26.33;;;14.27;;
6205;SDS011;3136;48.788;9.772;2023-03-01T07:55:14;28.47;;;14.07;;
6205;SDS011;3136;48.788;9.772;2023-03-01T07:57:41;27.87;;;15.20;;
6205;SDS011;3136;48.788;9.772;2023-03-01T08:00:07;22.47;;;13.97;;
6205;SDS011;3136;48.788;9.772;2023-03-01T08:02:35;25.13;;;14.17;;
6205;SDS011;3136;48.788;9.772;2023-03-01T08:05:00;25.40;;;14.30;;
6205;SDS011;3136;48.788;9.772;2023-03-01T08:07:26;27.60;;;14.20;;
6205;SDS011;3136;48.788;9.772;2023-03-01T08:09:51;26.30;;;14.60;;
6205;SDS011;3136;48.788;9.772;2023-03-01T08:12:17;26.33;;;14.23;;
6205;SDS011;3136;48.788;9.772;2023-03-01T08:14:42;26.87;;;15.47;;
6205;SDS011;3136;48.788;9.772;2023-03-01T08:17:08;26.43;;;14.27;;
6205;SDS011;3136;48.788;9.772;2023-03-01T08:19:34;23.93;;;14.87;;
6205;SDS011;3136;48.788;9.772;2023-03-01T08:22:01;22.90;;;14.00;;
6205;SDS011;3136;48.788;9.772;2023-03-01T08:24:27;26.17;;;14.33;;
6205;SDS011;3136;48.788;9.772;2023-03-01T08:26:53;23.37;;;14.23;;
6205;SDS011;3136;48.788;9.772;2023-03-01T08:29:19;28.73;;;15.70;;
6205;SDS011;3136;48.788;9.772;2023-03-01T08:31:45;26.67;;;15.23;;
6205;SDS011;3136;48.788;9.772;2023-03-01T08:34:11;25.77;;;14.33;;
6205;SDS011;3136;48.788;9.772;2023-03-01T08:36:40;28.23;;;13.73;;
6205;SDS011;3136;48.788;9.772;2023-03-01T08:39:07;23.67;;;14.20;;
6205;SDS011;3136;48.788;9.772;2023-03-01T08:41:34;24.77;;;15.77;;
6205;SDS011;3136;48.788;9.772;2023-03-01T08:43:59;25.23;;;15.13;;
6205;SDS011;3136;48.788;9.772;2023-03-01T08:46:29;22.63;;;14.00;;
6205;SDS011;3136;48.788;9.772;2023-03-01T08:48:57;22.97;;;13.67;;
6205;SDS011;3136;48.788;9.772;2023-03-01T08:51:23;25.73;;;14.93;;
6205;SDS011;3136;48.788;9.772;2023-03-01T08:53:50;23.60;;;14.20;;
6205;SDS011;3136;48.788;9.772;2023-03-01T08:56:15;24.63;;;15.03;;
6205;SDS011;3136;48.788;9.772;2023-03-01T08:58:44;21.77;;;13.77;;
6205;SDS011;3136;48.788;9.772;2023-03-01T09:01:11;22.47;;;13.87;;
6205;SDS011;3136;48.788;9.772;2023-03-01T09:03:38;25.03;;;14.43;;
6205;SDS011;3136;48.788;9.772;2023-03-01T09:06:04;24.30;;;14.27;;
6205;SDS011;3136;48.788;9.772;2023-03-01T09:08:34;20.90;;;14.03;;
6205;SDS011;3136;48.788;9.772;2023-03-01T09:11:01;21.30;;;13.80;;
6205;SDS011;3136;48.788;9.772;2023-03-01T09:13:28;24.07;;;14.17;;
6205;SDS011;3136;48.788;9.772;2023-03-01T09:15:56;22.27;;;13.60;;
6205;SDS011;3136;48.788;9.772;2023-03-01T09:18:22;21.50;;;13.90;;
6205;SDS011;3136;48.788;9.772;2023-03-01T09:20:47;22.67;;;14.27;;
6205;SDS011;3136;48.788;9.772;2023-03-01T09:23:13;23.20;;;14.83;;
6205;SDS011;3136;48.788;9.772;2023-03-01T09:25:38;23.77;;;14.03;;
6205;SDS011;3136;48.788;9.772;2023-03-01T09:28:04;23.17;;;14.10;;
6205;SDS011;3136;48.788;9.772;2023-03-01T09:30:30;24.47;;;14.83;;
6205;SDS011;3136;48.788;9.772;2023-03-01T09:32:58;21.00;;;14.13;;
6205;SDS011;3136;48.788;9.772;2023-03-01T09:35:23;22.60;;;14.47;;
6205;SDS011;3136;48.788;9.772;2023-03-01T09:37:49;21.70;;;13.33;;
6205;SDS011;3136;48.788;9.772;2023-03-01T09:40:17;19.90;;;13.63;;
6205;SDS011;3136;48.788;9.772;2023-03-01T09:42:46;24.03;;;13.53;;
6205;SDS011;3136;48.788;9.772;2023-03-01T09:45:33;22.23;;;13.60;;
6205;SDS011;3136;48.788;9.772;2023-03-01T09:48:02;22.33;;;13.07;;
6205;SDS011;3136;48.788;9.772;2023-03-01T09:50:35;19.33;;;13.27;;
6205;SDS011;3136;48.788;9.772;2023-03-01T09:53:09;19.83;;;13.87;;
6205;SDS011;3136;48.788;9.772;2023-03-01T09:55:44;20.33;;;13.20;;
6205;SDS011;3136;48.788;9.772;2023-03-01T10:09:35;20.63;;;12.83;;
6205;SDS011;3136;48.788;9.772;2023-03-01T10:12:12;19.30;;;12.23;;
6205;SDS011;3136;48.788;9.772;2023-03-01T10:14:53;18.77;;;12.03;;
6205;SDS011;3136;48.788;9.772;2023-03-01T10:17:27;17.93;;;12.03;;
6205;SDS011;3136;48.788;9.772;2023-03-01T10:20:10;18.63;;;11.67;;
6205;SDS011;3136;48.788;9.772;2023-03-01T10:22:59;16.17;;;11.73;;
6205;SDS011;3136;48.788;9.772;2023-03-01T10:30:50;17.47;;;12.30;;
6205;SDS011;3136;48.788;9.772;2023-03-01T10:33:20;18.77;;;12.53;;
6205;SDS011;3136;48.788;9.772;2023-03-01T10:35:49;21.17;;;12.37;;
6205;SDS011;3136;48.788;9.772;2023-03-01T10:38:16;18.73;;;11.90;;
6205;SDS011;3136;48.788;9.772;2023-03-01T10:40:53;18.80;;;12.53;;
6205;SDS011;3136;48.788;9.772;2023-03-01T10:43:19;17.63;;;12.10;;
6205;SDS011;3136;48.788;9.772;2023-03-01T10:45:45;19.13;;;12.57;;
6205;SDS011;3136;48.788;9.772;2023-03-01T10:50:47;18.27;;;12.53;;
6205;SDS011;3136;48.788;9.772;2023-03-01T10:53:32;18.83;;;12.50;;
6205;SDS011;3136;48.788;9.772;2023-03-01T10:56:04;17.87;;;12.03;;
6205;SDS011;3136;48.788;9.772;2023-03-01T10:58:30;17.87;;;11.83;;
6205;SDS011;3136;48.788;9.772;2023-03-01T11:01:23;18.63;;;13.33;;
6205;SDS011;3136;48.788;9.772;2023-03-01T11:03:43;18.53;;;12.27;;
6205;SDS011;3136;48.788;9.772;2023-03-01T11:08:38;16.63;;;12.53;;
6205;SDS011;3136;48.788;9.772;2023-03-01T11:11:05;18.40;;;13.03;;
6205;SDS011;3136;48.788;9.772;2023-03-01T11:13:31;17.43;;;12.83;;
6205;SDS011;3136;48.788;9.772;2023-03-01T11:16:00;15.50;;;11.97;;
6205;SDS011;3136;48.788;9.772;2023-03-01T11:18:29;16.40;;;12.33;;
6205;SDS011;3136;48.788;9.772;2023-03-01T11:20:55;17.10;;;12.03;;
6205;SDS011;3136;48.788;9.772;2023-03-01T11:23:23;15.97;;;12.73;;
6205;SDS011;3136;48.788;9.772;2023-03-01T11:26:01;15.13;;;12.03;;
6205;SDS011;3136;48.788;9.772;2023-03-01T11:28:30;14.03;;;11.80;;
6205;SDS011;3136;48.788;9.772;2023-03-01T11:31:04;15.70;;;11.87;;
6205;SDS011;3136;48.788;9.772;2023-03-01T11:36:29;15.57;;;12.00;;
6205;SDS011;3136;48.788;9.772;2023-03-01T11:39:17;18.33;;;11.80;;
6205;SDS011;3136;48.788;9.772;2023-03-01T11:41:48;14.50;;;11.57;;
6205;SDS011;3136;48.788;9.772;2023-03-01T11:44:20;15.77;;;11.70;;
6205;SDS011;3136;48.788;9.772;2023-03-01T11:46:58;13.83;;;11.53;;
6205;SDS011;3136;48.788;9.772;2023-03-01T11:49:33;15.03;;;12.17;;
6205;SDS011;3136;48.788;9.772;2023-03-01T11:52:09;15.90;;;12.63;;
6205;SDS011;3136;48.788;9.772;2023-03-01T12:00:39;13.47;;;11.43;;
6205;SDS011;3136;48.788;9.772;2023-03-01T12:03:40;13.90;;;10.80;;
6205;SDS011;3136;48.788;9.772;2023-03-01T12:09:17;14.03;;;11.57;;
6205;SDS011;3136;48.788;9.772;2023-03-01T12:26:13;13.17;;;11.27;;
6205;SDS011;3136;48.788;9.772;2023-03-01T12:28:45;12.27;;;10.97;;
6205;SDS011;3136;48.788;9.772;2023-03-01T12:37:42;12.77;;;10.93;;
6205;SDS011;3136;48.788;9.772;2023-03-01T12:40:33;14.13;;;10.97;;
6205;SDS011;3136;48.788;9.772;2023-03-01T12:43:07;11.93;;;10.07;;
6205;SDS011;3136;48.788;9.772;2023-03-01T12:48:32;13.53;;;10.30;;
6205;SDS011;3136;48.788;9.772;2023-03-01T12:51:05;13.10;;;11.13;;
6205;SDS011;3136;48.788;9.772;2023-03-01T12:53:36;12.67;;;10.53;;
6205;SDS011;3136;48.788;9.772;2023-03-01T12:56:21;14.63;;;11.10;;
6205;SDS011;3136;48.788;9.772;2023-03-01T13:09:17;12.13;;;10.83;;
6205;SDS011;3136;48.788;9.772;2023-03-01T13:11:52;17.40;;;11.67;;
6205;SDS011;3136;48.788;9.772;2023-03-01T13:16:48;15.47;;;11.77;;
6205;SDS011;3136;48.788;9.772;2023-03-01T13:19:15;14.73;;;11.87;;
6205;SDS011;3136;48.788;9.772;2023-03-01T13:21:43;14.07;;;11.77;;
6205;SDS011;3136;48.788;9.772;2023-03-01T13:27:10;16.43;;;11.73;;
6205;SDS011;3136;48.788;9.772;2023-03-01T13:29:49;14.10;;;12.23;;
6205;SDS011;3136;48.788;9.772;2023-03-01T13:32:37;16.97;;;11.83;;
6205;SDS011;3136;48.788;9.772;2023-03-01T13:37:41;14.83;;;12.37;;
6205;SDS011;3136;48.788;9.772;2023-03-01T13:42:47;17.73;;;11.90;;
6205;SDS011;3136;48.788;9.772;2023-03-01T13:48:18;14.67;;;11.43;;
6205;SDS011;3136;48.788;9.772;2023-03-01T13:50:50;17.47;;;12.40;;
6205;SDS011;3136;48.788;9.772;2023-03-01T13:53:20;14.53;;;11.60;;
6205;SDS011;3136;48.788;9.772;2023-03-01T13:55:52;14.67;;;12.57;;
6205;SDS011;3136;48.788;9.772;2023-03-01T14:01:18;15.43;;;12.50;;
6205;SDS011;3136;48.788;9.772;2023-03-01T14:03:46;14.87;;;11.57;;
6205;SDS011;3136;48.788;9.772;2023-03-01T14:06:14;15.00;;;11.83;;
6205;SDS011;3136;48.788;9.772;2023-03-01T14:08:43;15.83;;;11.70;;
6205;SDS011;3136;48.788;9.772;2023-03-01T14:16:39;15.00;;;12.03;;
6205;SDS011;3136;48.788;9.772;2023-03-01T14:19:26;15.97;;;10.87;;
6205;SDS011;3136;48.788;9.772;2023-03-01T14:22:00;13.63;;;10.83;;
6205;SDS011;3136;48.788;9.772;2023-03-01T14:24:37;15.27;;;11.17;;
6205;SDS011;3136;48.788;9.772;2023-03-01T14:27:09;16.07;;;11.37;;
6205;SDS011;3136;48.788;9.772;2023-03-01T14:29:38;18.50;;;12.00;;
6205;SDS011;3136;48.788;9.772;2023-03-01T14:32:08;14.90;;;11.20;;
6205;SDS011;3136;48.788;9.772;2023-03-01T14:34:45;14.87;;;11.03;;
6205;SDS011;3136;48.788;9.772;2023-03-01T14:37:29;15.33;;;11.70;;
6205;SDS011;3136;48.788;9.772;2023-03-01T14:39:58;16.57;;;11.37;;
6205;SDS011;3136;48.788;9.772;2023-03-01T14:42:26;14.53;;;11.47;;
6205;SDS011;3136;48.788;9.772;2023-03-01T14:44:55;15.27;;;10.60;;
6205;SDS011;3136;48.788;9.772;2023-03-01T14:47:29;15.97;;;11.07;;
6205;SDS011;3136;48.788;9.772;2023-03-01T14:50:01;15.30;;;11.50;;
6205;SDS011;3136;48.788;9.772;2023-03-01T14:52:54;13.40;;;10.37;;
6205;SDS011;3136;48.788;9.772;2023-03-01T14:55:27;14.77;;;10.77;;
6205;SDS011;3136;48.788;9.772;2023-03-01T14:57:59;16.00;;;11.33;;
6205;SDS011;3136;48.788;9.772;2023-03-01T15:00:29;14.93;;;10.90;;
6205;SDS011;3136;48.788;9.772;2023-03-01T15:02:56;14.20;;;11.00;;
6205;SDS011;3136;48.788;9.772;2023-03-01T15:05:29;16.40;;;10.80;;
6205;SDS011;3136;48.788;9.772;2023-03-01T15:07:57;15.47;;;11.07;;
6205;SDS011;3136;48.788;9.772;2023-03-01T15:10:26;15.83;;;11.70;;
6205;SDS011;3136;48.788;9.772;2023-03-01T15:12:54;14.13;;;11.37;;
6205;SDS011;3136;48.788;9.772;2023-03-01T15:15:32;14.47;;;10.80;;
6205;SDS011;3136;48.788;9.772;2023-03-01T15:18:12;14.40;;;11.07;;
6205;SDS011;3136;48.788;9.772;2023-03-01T15:20:44;14.80;;;11.17;;
6205;SDS011;3136;48.788;9.772;2023-03-01T15:23:18;19.67;;;11.30;;
6205;SDS011;3136;48.788;9.772;2023-03-01T15:25:52;15.03;;;11.33;;
6205;SDS011;3136;48.788;9.772;2023-03-01T15:28:31;16.23;;;11.13;;
6205;SDS011;3136;48.788;9.772;2023-03-01T15:33:36;16.53;;;10.87;;
6205;SDS011;3136;48.788;9.772;2023-03-01T15:36:48;14.80;;;10.60;;
6205;SDS011;3136;48.788;9.772;2023-03-01T15:39:23;18.00;;;11.43;;
6205;SDS011;3136;48.788;9.772;2023-03-01T15:42:02;18.87;;;11.13;;
6205;SDS011;3136;48.788;9.772;2023-03-01T15:44:33;16.80;;;11.17;;
6205;SDS011;3136;48.788;9.772;2023-03-01T15:47:04;16.43;;;10.87;;
6205;SDS011;3136;48.788;9.772;2023-03-01T15:49:47;17.10;;;11.20;;
6205;SDS011;3136;48.788;9.772;2023-03-01T15:52:21;17.43;;;11.20;;
6205;SDS011;3136;48.788;9.772;2023-03-01T15:54:56;17.07;;;11.27;;
6205;SDS011;3136;48.788;9.772;2023-03-01T15:57:26;15.90;;;10.47;;
6205;SDS011;3136;48.788;9.772;2023-03-01T15:59:52;14.60;;;10.40;;
6205;SDS011;3136;48.788;9.772;2023-03-01T16:02:17;17.10;;;10.80;;
6205;SDS011;3136;48.788;9.772;2023-03-01T16:04:45;15.37;;;10.97;;
6205;SDS011;3136;48.788;9.772;2023-03-01T16:07:11;17.77;;;11.73;;
6205;SDS011;3136;48.788;9.772;2023-03-01T16:09:37;17.33;;;10.43;;
6205;SDS011;3136;48.788;9.772;2023-03-01T16:12:03;19.37;;;11.80;;
6205;SDS011;3136;48.788;9.772;2023-03-01T16:14:28;17.77;;;10.70;;
6205;SDS011;3136;48.788;9.772;2023-03-01T16:16:54;16.23;;;11.37;;
6205;SDS011;3136;48.788;9.772;2023-03-01T16:19:20;16.63;;;11.10;;
6205;SDS011;3136;48.788;9.772;2023-03-01T16:21:45;20.00;;;11.40;;
6205;SDS011;3136;48.788;9.772;2023-03-01T16:24:13;16.97;;;10.53;;
6205;SDS011;3136;48.788;9.772;2023-03-01T16:26:39;16.30;;;11.43;;
6205;SDS011;3136;48.788;9.772;2023-03-01T16:29:05;18.37;;;11.33;;
6205;SDS011;3136;48.788;9.772;2023-03-01T16:31:30;17.23;;;11.37;;
6205;SDS011;3136;48.788;9.772;2023-03-01T16:33:57;19.57;;;12.47;;
6205;SDS011;3136;48.788;9.772;2023-03-01T16:36:24;19.20;;;12.50;;
6205;SDS011;3136;48.788;9.772;2023-03-01T16:38:52;17.80;;;11.67;;